Terminal Aerodrome Forecast
Issued by NWS Greer, SC

Home | Current Version | Previous Version | Text Only | Print | Product List | Glossary On
Versions: 1 2 3 4 5 6 7 8 9 10 11 12 13 14 15 16 17 18 19 20 21 22 23 24 25 26 27 28 29 30
218
FTUS42 KGSP 181238 AAA
TAFAVL
TAF AMD
KAVL 181238Z 1813/1912 16003KT P6SM OVC005
      TEMPO 1813/1815 SCT005 BKN035
     FM181500 34007G16KT P6SM BKN070
     FM190200 34007KT P6SM BKN250
     FM190600 33006KT P6SM SCT250 WS020/29035KT=

USA.gov is the U.S. government's official web portal to all federal, state and local government web resources and services.